createdAt,value
2019-04-28T00:00:43.666Z,4.4168
2019-04-28T00:01:44.858Z,4.4063
2019-04-28T00:02:46.692Z,4.3589
2019-04-28T00:03:47.887Z,4.3439
2019-04-28T00:04:51.395Z,4.4079
2019-04-28T00:05:52.702Z,4.4465
2019-04-28T00:06:54.578Z,4.4394
2019-04-28T00:07:55.771Z,4.4269
2019-04-28T00:08:57.659Z,4.4109
2019-04-28T00:09:58.986Z,4.3663
2019-04-28T00:11:01.948Z,4.3808
2019-04-28T00:12:03.179Z,4.4147
2019-04-28T00:13:05.024Z,4.4408
2019-04-28T00:14:08.358Z,4.4400
2019-04-28T00:15:10.900Z,4.4212
2019-04-28T00:16:12.795Z,4.4188
2019-04-28T00:17:14.776Z,4.4247
2019-04-28T00:18:16.617Z,4.4134
2019-04-28T00:19:18.454Z,4.3825
2019-04-28T00:20:21.329Z,4.3343
2019-04-28T00:21:23.504Z,4.3331
2019-04-28T00:22:25.352Z,4.3328
2019-04-28T00:23:26.325Z,4.3338
2019-04-28T00:24:28.233Z,4.2896
2019-04-28T00:25:31.201Z,4.2277
2019-04-28T00:26:33.127Z,4.1743
2019-04-28T00:27:34.996Z,4.2168
2019-04-28T00:28:36.193Z,4.2308
2019-04-28T00:29:41.293Z,4.2282
2019-04-28T00:30:43.731Z,4.1851
2019-04-28T00:31:45.660Z,4.1588
2019-04-28T00:32:46.853Z,4.1364
2019-04-28T00:33:48.674Z,4.1507
2019-04-28T00:34:51.235Z,4.1868
2019-04-28T00:35:53.183Z,4.1696
2019-04-28T00:36:55.088Z,4.1224
2019-04-28T00:37:57.353Z,4.0620
2019-04-28T00:38:59.250Z,3.9997
2019-04-28T00:40:01.189Z,3.9888
2019-04-28T00:41:02.507Z,4.0336
2019-04-28T00:42:04.392Z,4.0380
2019-04-28T00:43:06.562Z,4.0342
2019-04-28T00:44:07.826Z,4.0321
2019-04-28T00:45:11.406Z,4.0768
2019-04-28T00:46:12.784Z,4.0880
2019-04-28T00:47:13.981Z,4.0790
2019-04-28T00:48:15.820Z,4.0812
2019-04-28T00:49:17.956Z,4.1099
2019-04-28T00:50:21.655Z,4.1466
2019-04-28T00:51:22.961Z,4.1359
2019-04-28T00:52:24.838Z,4.1753
2019-04-28T00:53:26.768Z,4.2306
2019-04-28T00:54:28.251Z,4.2558
2019-04-28T00:55:31.906Z,4.2593
2019-04-28T00:56:33.863Z,4.2301
2019-04-28T00:57:35.723Z,4.2210
2019-04-28T00:58:37.707Z,4.2370
2019-04-28T00:59:52.065Z,4.2262
2019-04-28T01:00:46.167Z,4.2165
2019-04-28T01:01:48.013Z,4.2137
2019-04-28T01:02:50.981Z,4.2223
2019-04-28T01:03:52.042Z,4.2374
2019-04-28T01:04:53.883Z,4.2166
2019-04-28T01:05:55.089Z,4.2154
2019-04-28T01:06:56.883Z,4.2366
2019-04-28T01:07:58.097Z,4.2477
2019-04-28T01:09:01.372Z,4.2610
2019-04-28T01:10:05.811Z,4.2390
2019-04-28T01:11:07.028Z,4.2344
2019-04-28T01:12:08.879Z,4.2646
2019-04-28T01:13:11.676Z,4.2899
2019-04-28T01:14:13.617Z,4.3073
2019-04-28T01:15:15.765Z,4.3267
2019-04-28T01:16:19.317Z,4.3358
2019-04-28T01:17:21.284Z,4.3351
2019-04-28T01:18:22.478Z,4.3176
2019-04-28T01:19:24.301Z,4.2894
2019-04-28T01:20:26.370Z,4.3036
2019-04-28T01:21:27.561Z,4.3481
2019-04-28T01:22:30.064Z,4.4167
2019-04-28T01:23:32.039Z,4.4500
2019-04-28T01:24:33.801Z,4.4642
2019-04-28T01:25:35.016Z,4.4423
2019-04-28T01:26:36.808Z,4.3873
2019-04-28T01:27:40.262Z,4.3297
2019-04-28T01:28:42.217Z,4.3331
2019-04-28T01:29:44.096Z,4.3260
2019-04-28T01:30:46.174Z,4.3104
2019-04-28T01:31:49.324Z,4.3570
2019-04-28T01:32:51.322Z,4.4170
2019-04-28T01:33:53.156Z,4.4376
2019-04-28T01:34:55.001Z,4.4378
2019-04-28T01:35:57.232Z,4.4393
2019-04-28T01:36:59.796Z,4.3804
2019-04-28T01:38:01.744Z,4.3617
2019-04-28T01:39:03.546Z,4.3629
2019-04-28T01:40:05.487Z,4.3390
2019-04-28T01:41:07.604Z,4.2874
2019-04-28T01:42:10.594Z,4.2706
2019-04-28T01:43:12.564Z,4.2684
2019-04-28T01:44:13.769Z,4.2879
2019-04-28T01:45:14.954Z,4.2744
2019-04-28T01:46:17.270Z,4.2983
2019-04-28T01:47:20.499Z,4.3120
2019-04-28T01:48:22.487Z,4.2943
2019-04-28T01:49:24.363Z,4.2278
2019-04-28T01:50:26.281Z,4.1781
2019-04-28T01:51:28.162Z,4.1420
2019-04-28T01:52:30.305Z,4.0941
2019-04-28T01:53:32.369Z,4.0844
2019-04-28T01:54:34.319Z,4.1160
2019-04-28T01:55:35.507Z,4.1378
2019-04-28T01:56:37.315Z,4.1848
2019-04-28T01:57:40.016Z,4.2397
2019-04-28T01:58:41.188Z,4.2871
2019-04-28T01:59:42.024Z,4.2938
2019-04-28T02:00:43.916Z,4.2751
2019-04-28T02:01:45.713Z,4.2042
2019-04-28T02:02:46.922Z,4.1417
2019-04-28T02:03:50.263Z,4.1371
2019-04-28T02:04:52.181Z,4.0681
2019-04-28T02:05:53.995Z,4.0403
2019-04-28T02:06:55.896Z,4.0036
2019-04-28T02:07:58.020Z,3.9670
2019-04-28T02:09:00.841Z,3.9691
2019-04-28T02:10:02.200Z,3.9408
2019-04-28T02:11:04.039Z,3.9016
2019-04-28T02:12:05.848Z,3.9004
2019-04-28T02:13:07.622Z,3.9009
2019-04-28T02:14:09.683Z,3.9204
2019-04-28T02:15:11.534Z,3.9218
2019-04-28T02:16:13.424Z,3.8770
2019-04-28T02:17:15.295Z,3.8669
2019-04-28T02:18:17.155Z,3.7991
2019-04-28T02:19:20.364Z,3.7654
2019-04-28T02:20:21.626Z,3.7299
2019-04-28T02:21:22.823Z,3.6901
2019-04-28T02:22:24.335Z,3.6727
2019-04-28T02:23:25.542Z,3.6422
2019-04-28T02:24:27.294Z,3.6210
2019-04-28T02:25:29.832Z,3.6090
2019-04-28T02:26:31.429Z,3.6022
2019-04-28T02:27:33.319Z,3.5604
2019-04-28T02:28:35.195Z,3.5181
2019-04-28T02:29:37.168Z,3.4798
2019-04-28T02:30:45.459Z,3.4373
2019-04-28T02:31:45.167Z,3.4427
2019-04-28T02:32:46.957Z,3.4830
2019-04-28T02:33:50.492Z,3.5594
2019-04-28T02:34:54.481Z,3.6199
2019-04-28T02:35:56.407Z,3.6833
2019-04-28T02:37:00.993Z,3.7907
2019-04-28T02:38:03.032Z,3.9267
2019-04-28T02:39:04.234Z,3.9715
2019-04-28T02:40:06.071Z,3.9693
2019-04-28T02:41:07.270Z,3.9726
2019-04-28T02:42:10.901Z,3.9702
2019-04-28T02:43:12.396Z,3.9790
2019-04-28T02:44:14.220Z,4.0142
2019-04-28T02:45:15.427Z,4.0316
2019-04-28T02:46:17.255Z,4.0268
2019-04-28T02:47:21.638Z,4.0401
2019-04-28T02:48:24.700Z,4.0562
2019-04-28T02:49:26.116Z,4.0615
2019-04-28T02:50:30.450Z,4.0263
2019-04-28T02:51:33.953Z,4.0753
2019-04-28T02:52:35.149Z,4.1603
2019-04-28T02:53:36.340Z,4.1650
2019-04-28T02:54:40.351Z,4.1220
2019-04-28T02:55:41.794Z,4.0208
2019-04-28T02:56:43.721Z,3.9576
2019-04-28T02:57:45.565Z,3.9481
2019-04-28T02:58:47.525Z,3.9528
2019-04-28T02:59:50.930Z,3.9333
2019-04-28T03:01:06.795Z,3.8938
2019-04-28T03:02:00.691Z,3.8707
2019-04-28T03:03:01.950Z,3.8449
2019-04-28T03:04:03.197Z,3.8137
2019-04-28T03:05:05.038Z,3.7793
2019-04-28T03:06:06.240Z,3.7667
2019-04-28T03:07:08.058Z,3.7705
2019-04-28T03:08:11.131Z,3.7701
2019-04-28T03:09:13.191Z,3.7673
2019-04-28T03:10:14.097Z,3.7814
2019-04-28T03:11:16.252Z,3.8025
2019-04-28T03:12:18.073Z,3.8227
2019-04-28T03:13:20.979Z,3.8145
2019-04-28T03:14:22.301Z,3.7809
2019-04-28T03:15:23.486Z,3.7825
2019-04-28T03:16:25.620Z,3.8128
2019-04-28T03:17:27.480Z,3.8719
2019-04-28T03:18:31.373Z,3.8819
2019-04-28T03:19:34.192Z,3.8816
2019-04-28T03:20:35.977Z,3.8649
2019-04-28T03:21:41.392Z,3.8201
2019-04-28T03:22:42.894Z,3.7513
2019-04-28T03:23:43.665Z,3.6952
2019-04-28T03:24:44.926Z,3.6605
2019-04-28T03:25:46.786Z,3.6178
2019-04-28T03:26:50.951Z,3.5900
2019-04-28T03:27:52.934Z,3.5714
2019-04-28T03:28:54.190Z,3.5963
2019-04-28T03:29:56.044Z,3.6403
2019-04-28T03:30:57.969Z,3.6553
2019-04-28T03:32:23.128Z,3.6622
2019-04-28T03:33:11.615Z,3.6466
2019-04-28T03:34:12.872Z,3.6105
2019-04-28T03:35:14.112Z,3.5901
2019-04-28T03:36:16.149Z,3.5758
2019-04-28T03:37:18.277Z,3.5643
2019-04-28T03:38:21.372Z,3.5497
2019-04-28T03:39:23.368Z,3.5174
2019-04-28T03:40:25.239Z,3.5130
2019-04-28T03:41:26.424Z,3.5287
2019-04-28T03:42:31.148Z,3.5433
2019-04-28T03:43:33.501Z,3.5499
2019-04-28T03:44:35.306Z,3.5533
2019-04-28T03:45:37.159Z,3.5665
2019-04-28T03:46:41.212Z,3.5689
2019-04-28T03:47:42.567Z,3.5889
2019-04-28T03:48:43.755Z,3.6488
2019-04-28T03:49:45.711Z,3.6855
2019-04-28T03:50:47.571Z,3.7084
2019-04-28T03:51:50.627Z,3.7157
2019-04-28T03:52:52.493Z,3.7213
2019-04-28T03:53:54.525Z,3.7498
2019-04-28T03:54:56.401Z,3.7816
2019-04-28T03:55:56.600Z,3.8041
2019-04-28T03:57:01.088Z,3.8467
2019-04-28T03:58:02.558Z,3.8636
2019-04-28T03:59:04.661Z,3.8712
2019-04-28T04:00:06.308Z,3.8764
2019-04-28T04:01:10.842Z,3.8637
2019-04-28T04:02:12.224Z,3.8636
2019-04-28T04:03:14.070Z,3.8661
2019-04-28T04:04:15.281Z,3.8670
2019-04-28T04:05:16.484Z,3.8582
2019-04-28T04:06:18.192Z,3.8397
2019-04-28T04:07:21.240Z,3.8286
2019-04-28T04:08:23.010Z,3.8047
2019-04-28T04:09:25.224Z,3.7872
2019-04-28T04:10:27.011Z,3.7808
2019-04-28T04:11:28.208Z,3.7743
2019-04-28T04:12:30.944Z,3.7587
2019-04-28T04:13:33.254Z,3.7499
2019-04-28T04:14:35.089Z,3.7471
2019-04-28T04:15:36.994Z,3.7535
2019-04-28T04:16:40.540Z,3.7651
2019-04-28T04:17:42.730Z,3.7671
2019-04-28T04:18:43.498Z,3.7387
2019-04-28T04:19:45.586Z,3.7209
2019-04-28T04:20:47.476Z,3.7133
2019-04-28T04:21:50.606Z,3.7044
2019-04-28T04:22:53.942Z,3.6966
2019-04-28T04:23:55.775Z,3.6962
2019-04-28T04:24:55.993Z,3.7012
2019-04-28T04:25:57.895Z,3.7167
2019-04-28T04:27:00.815Z,3.7306
2019-04-28T04:28:03.686Z,3.7436
2019-04-28T04:29:05.178Z,3.7570
2019-04-28T04:30:07.286Z,3.7644
2019-04-28T04:31:10.213Z,3.7570
2019-04-28T04:32:22.820Z,3.7429
2019-04-28T04:33:20.629Z,3.7185
2019-04-28T04:34:24.167Z,3.7142
2019-04-28T04:35:25.375Z,3.6895
2019-04-28T04:36:27.214Z,3.5879
2019-04-28T04:37:30.741Z,3.5404
2019-04-28T04:38:32.848Z,3.5313
2019-04-28T04:39:34.075Z,3.5253
2019-04-28T04:40:35.867Z,3.5503
2019-04-28T04:41:37.099Z,3.5890
2019-04-28T04:42:40.306Z,3.6314
2019-04-28T04:43:41.916Z,3.6751
2019-04-28T04:44:43.692Z,3.7216
2019-04-28T04:45:44.889Z,3.7325
2019-04-28T04:46:46.083Z,3.7254
2019-04-28T04:47:47.270Z,3.7265
2019-04-28T04:48:50.750Z,3.7428
2019-04-28T04:49:52.179Z,3.7520
2019-04-28T04:50:54.041Z,3.7623
2019-04-28T04:51:54.917Z,3.8031
2019-04-28T04:52:56.882Z,3.8557
2019-04-28T04:54:00.708Z,3.9257
2019-04-28T04:55:03.547Z,3.9758
2019-04-28T04:56:04.733Z,4.0157
2019-04-28T04:57:06.560Z,4.0866
2019-04-28T04:58:07.778Z,4.1363
2019-04-28T04:59:10.341Z,4.2046
2019-04-28T05:00:11.646Z,4.2624
2019-04-28T05:01:13.683Z,4.3249
2019-04-28T05:02:28.339Z,4.3613
2019-04-28T05:03:21.412Z,4.4601
2019-04-28T05:04:23.411Z,4.5174
2019-04-28T05:05:25.290Z,4.5552
2019-04-28T05:06:26.167Z,4.5698
2019-04-28T05:07:29.540Z,4.6010
2019-04-28T05:08:31.109Z,4.6158
2019-04-28T05:09:33.012Z,4.5585
2019-04-28T05:10:34.195Z,4.4904
2019-04-28T05:11:36.037Z,4.4729
2019-04-28T05:12:38.201Z,4.4719
2019-04-28T05:13:39.911Z,4.4494
2019-04-28T05:14:41.844Z,4.4230
2019-04-28T05:15:43.709Z,4.4011
2019-04-28T05:16:45.488Z,4.3556
2019-04-28T05:17:47.443Z,4.3311
2019-04-28T05:18:49.918Z,4.2673
2019-04-28T05:19:51.900Z,4.2194
2019-04-28T05:20:53.105Z,4.2047
2019-04-28T05:21:55.087Z,4.2159
2019-04-28T05:22:57.178Z,4.2185
2019-04-28T05:23:59.644Z,4.2200
2019-04-28T05:25:01.404Z,4.2403
2019-04-28T05:26:08.167Z,4.2850
2019-04-28T05:27:09.764Z,4.2697
2019-04-28T05:28:11.070Z,4.2542
2019-04-28T05:29:12.297Z,4.2017
2019-04-28T05:30:14.219Z,4.1585
2019-04-28T05:31:20.658Z,4.1019
2019-04-28T05:32:22.160Z,4.0670
2019-04-28T05:33:30.248Z,4.0289
2019-04-28T05:34:29.802Z,3.9921
2019-04-28T05:35:31.035Z,3.9748
2019-04-28T05:36:40.937Z,3.9691
2019-04-28T05:37:40.326Z,3.9454
2019-04-28T05:38:42.151Z,3.9007
2019-04-28T05:39:43.443Z,3.8826
2019-04-28T05:40:45.273Z,3.8775
2019-04-28T05:41:46.457Z,3.8957
2019-04-28T05:42:47.654Z,3.8985
2019-04-28T05:43:50.448Z,3.8844
2019-04-28T05:44:52.372Z,3.8813
2019-04-28T05:45:53.543Z,3.8550
2019-04-28T05:46:55.453Z,3.8366
2019-04-28T05:47:57.367Z,3.8311
2019-04-28T05:49:00.001Z,3.8445
2019-04-28T05:50:01.239Z,3.8409
2019-04-28T05:51:02.435Z,3.8190
2019-04-28T05:52:04.356Z,3.7963
2019-04-28T05:53:06.112Z,3.7849
2019-04-28T05:54:09.748Z,3.8056
2019-04-28T05:55:12.121Z,3.7990
2019-04-28T05:56:13.330Z,3.7109
2019-04-28T05:57:15.220Z,3.6596
2019-04-28T05:58:16.426Z,3.5786
2019-04-28T05:59:19.476Z,3.5403
2019-04-28T06:00:22.346Z,3.5705
2019-04-28T06:01:24.225Z,3.5884
2019-04-28T06:02:25.472Z,3.5914
2019-04-28T06:03:26.649Z,3.5847
2019-04-28T06:04:30.283Z,3.5551
2019-04-28T06:05:32.682Z,3.5669
2019-04-28T06:06:33.885Z,3.5564
2019-04-28T06:07:35.748Z,3.5675
2019-04-28T06:08:37.050Z,3.5761
2019-04-28T06:09:39.872Z,3.5558
2019-04-28T06:10:41.353Z,3.5426
2019-04-28T06:11:43.273Z,3.5935
2019-04-28T06:12:45.207Z,3.6449
2019-04-28T06:13:47.085Z,3.6881
2019-04-28T06:14:50.229Z,3.6941
2019-04-28T06:15:52.508Z,3.6965
2019-04-28T06:16:53.711Z,3.7202
2019-04-28T06:17:55.587Z,3.7422
2019-04-28T06:18:57.471Z,3.7338
2019-04-28T06:20:00.170Z,3.6981
2019-04-28T06:21:01.892Z,3.6113
2019-04-28T06:22:03.781Z,3.5698
2019-04-28T06:23:05.641Z,3.5895
2019-04-28T06:24:07.441Z,3.5878
2019-04-28T06:25:09.354Z,3.5580
2019-04-28T06:26:11.469Z,3.6028
2019-04-28T06:27:13.265Z,3.5894
2019-04-28T06:28:15.112Z,3.5843
2019-04-28T06:29:16.315Z,3.6816
2019-04-28T06:30:18.044Z,3.7641
2019-04-28T06:31:19.231Z,3.7198
2019-04-28T06:32:20.943Z,3.7596
2019-04-28T06:33:21.135Z,3.7918
2019-04-28T06:34:22.951Z,3.8189
2019-04-28T06:35:24.860Z,3.7611
2019-04-28T06:36:26.555Z,3.6925
2019-04-28T06:37:28.438Z,3.6968
2019-04-28T06:38:30.359Z,3.7832
2019-04-28T06:39:31.589Z,3.7711
2019-04-28T06:40:33.424Z,3.8564
2019-04-28T06:41:35.520Z,4.0818
2019-04-28T06:42:37.482Z,4.1865
2019-04-28T06:43:38.672Z,4.2348
2019-04-28T06:44:40.557Z,4.3414
2019-04-28T06:45:42.519Z,4.4935
2019-04-28T06:46:43.717Z,4.4989
2019-04-28T06:47:45.533Z,4.3883
2019-04-28T06:48:46.729Z,4.2489
2019-04-28T06:49:48.559Z,4.0731
2019-04-28T06:50:50.375Z,3.9698
2019-04-28T06:51:52.527Z,3.8044
2019-04-28T06:52:54.485Z,3.6282
2019-04-28T06:53:56.222Z,3.5537
2019-04-28T06:54:58.208Z,3.5748
2019-04-28T06:56:00.043Z,3.5984
2019-04-28T06:57:01.972Z,3.6478
2019-04-28T06:58:03.877Z,3.7516
2019-04-28T06:59:05.745Z,3.8493
2019-04-28T07:00:06.942Z,3.8922
2019-04-28T07:01:08.692Z,3.8851
2019-04-28T07:02:11.123Z,3.8843
2019-04-28T07:03:22.698Z,3.8337
2019-04-28T07:04:18.716Z,3.7770
2019-04-28T07:05:20.553Z,3.6787
2019-04-28T07:06:21.759Z,3.5842
2019-04-28T07:07:22.998Z,3.5354
2019-04-28T07:08:24.184Z,3.5350
2019-04-28T07:09:26.046Z,3.5318
2019-04-28T07:10:27.338Z,3.5419
2019-04-28T07:11:29.182Z,3.6397
2019-04-28T07:12:30.896Z,3.7441
2019-04-28T07:13:32.888Z,3.7236
2019-04-28T07:14:34.723Z,3.7452
2019-04-28T07:15:36.563Z,3.7863
2019-04-28T07:16:37.777Z,3.7989
2019-04-28T07:17:38.970Z,3.8774
2019-04-28T07:18:39.787Z,3.9115
2019-04-28T07:19:41.658Z,3.9411
2019-04-28T07:20:43.484Z,4.0788
2019-04-28T07:21:45.283Z,4.1214
2019-04-28T07:22:47.169Z,4.1582
2019-04-28T07:23:47.951Z,4.2283
2019-04-28T07:24:49.151Z,4.1462
2019-04-28T07:25:50.864Z,4.0839
2019-04-28T07:26:52.776Z,4.0151
2019-04-28T07:27:54.563Z,3.9259
2019-04-28T07:28:56.384Z,3.8714
2019-04-28T07:29:58.155Z,3.9686
2019-04-28T07:30:59.346Z,4.0879
2019-04-28T07:32:01.142Z,4.1550
2019-04-28T07:33:03.271Z,4.1089
2019-04-28T07:34:05.292Z,3.9951
2019-04-28T07:35:07.168Z,3.9837
2019-04-28T07:36:09.021Z,3.9382
2019-04-28T07:37:10.802Z,3.9253
2019-04-28T07:38:13.059Z,3.9256
2019-04-28T07:39:14.794Z,3.9066
2019-04-28T07:40:16.705Z,3.9067
2019-04-28T07:41:18.487Z,4.0225
2019-04-28T07:42:20.303Z,4.2051
2019-04-28T07:43:21.530Z,4.4892
2019-04-28T07:44:22.726Z,4.7923
2019-04-28T07:45:24.565Z,5.1243
2019-04-28T07:46:26.442Z,5.5749
2019-04-28T07:47:27.643Z,5.9968
2019-04-28T07:48:29.788Z,6.2617
2019-04-28T07:49:31.629Z,6.4323
2019-04-28T07:50:33.613Z,6.5038
2019-04-28T07:51:35.471Z,6.5961
2019-04-28T07:52:37.272Z,6.7501
2019-04-28T07:53:39.398Z,6.7724
2019-04-28T07:54:41.226Z,6.7556
2019-04-28T07:55:43.116Z,7.0665
2019-04-28T07:56:44.996Z,7.3980
2019-04-28T07:57:46.778Z,7.4647
2019-04-28T07:58:48.893Z,7.7843
2019-04-28T07:59:49.699Z,7.9600
2019-04-28T08:00:50.889Z,7.6548
2019-04-28T08:01:52.114Z,7.5132
2019-04-28T08:02:53.939Z,7.6342
2019-04-28T08:03:57.511Z,7.3600
2019-04-28T08:04:59.452Z,6.9303
2019-04-28T08:06:01.309Z,6.6230
2019-04-28T08:07:03.151Z,6.3115
2019-04-28T08:08:04.440Z,6.0551
2019-04-28T08:09:06.535Z,5.9230
2019-04-28T08:10:08.575Z,5.9787
2019-04-28T08:11:10.383Z,6.0117
2019-04-28T08:12:12.247Z,5.9709
2019-04-28T08:13:14.109Z,5.8647
2019-04-28T08:14:15.320Z,5.6998
2019-04-28T08:15:17.235Z,5.6619
2019-04-28T08:16:18.885Z,5.9436
2019-04-28T08:17:20.035Z,6.3995
2019-04-28T08:18:21.893Z,6.8207
2019-04-28T08:19:23.714Z,7.5178
2019-04-28T08:20:24.921Z,7.8613
2019-04-28T08:21:26.146Z,7.7130
2019-04-28T08:22:28.018Z,8.1688
2019-04-28T08:23:29.987Z,9.7432
2019-04-28T08:24:31.422Z,10.6681
2019-04-28T08:25:32.369Z,11.2432
2019-04-28T08:26:36.307Z,11.3633
2019-04-28T08:27:38.336Z,10.5458
2019-04-28T08:28:40.154Z,11.0257
2019-04-28T08:29:42.240Z,11.5882
2019-04-28T08:30:44.025Z,10.5360
2019-04-28T08:31:45.879Z,9.4045
2019-04-28T08:32:46.777Z,8.7991
2019-04-28T08:33:48.697Z,9.6456
2019-04-28T08:34:49.886Z,11.0453
2019-04-28T08:35:51.667Z,12.0616
2019-04-28T08:36:52.872Z,12.2348
2019-04-28T08:37:54.661Z,11.6803
2019-04-28T08:38:56.503Z,11.6473
2019-04-28T08:39:58.650Z,10.7860
2019-04-28T08:41:00.432Z,10.6805
2019-04-28T08:42:02.263Z,12.2459
2019-04-28T08:43:04.138Z,13.2780
2019-04-28T08:44:06.121Z,13.8526
2019-04-28T08:45:07.443Z,14.5089
2019-04-28T08:46:09.293Z,14.0259
2019-04-28T08:47:11.132Z,14.0648
2019-04-28T08:48:12.339Z,12.4026
2019-04-28T08:49:14.205Z,10.2005
2019-04-28T08:50:16.279Z,9.4544
2019-04-28T08:51:18.208Z,9.4099
2019-04-28T08:52:19.239Z,11.1744
2019-04-28T08:53:20.983Z,12.0216
2019-04-28T08:54:22.203Z,12.7648
2019-04-28T08:55:23.407Z,13.5102
2019-04-28T08:56:24.236Z,13.7670
2019-04-28T08:57:26.024Z,13.4606
2019-04-28T08:58:27.213Z,13.6297
2019-04-28T08:59:29.117Z,14.6128
2019-04-28T09:00:31.102Z,15.0253
2019-04-28T09:01:32.804Z,13.6862
2019-04-28T09:02:34.613Z,13.5305
2019-04-28T09:03:36.437Z,13.4201
2019-04-28T09:04:38.669Z,14.2707
2019-04-28T09:05:40.536Z,14.7204
2019-04-28T09:06:42.385Z,14.9604
2019-04-28T09:07:44.249Z,14.5664
2019-04-28T09:08:45.441Z,14.8569
2019-04-28T09:09:47.302Z,15.9862
2019-04-28T09:10:48.492Z,14.9528
2019-04-28T09:11:49.702Z,13.6803
2019-04-28T09:12:51.513Z,13.1100
2019-04-28T09:13:53.381Z,12.0074
2019-04-28T09:14:55.204Z,10.6929
2019-04-28T09:15:57.029Z,10.1952
2019-04-28T09:16:59.223Z,9.7838
2019-04-28T09:18:01.018Z,9.3755
2019-04-28T09:19:02.217Z,8.8767
2019-04-28T09:20:04.030Z,8.7550
2019-04-28T09:21:05.839Z,8.8642
2019-04-28T09:22:08.200Z,9.0025
2019-04-28T09:23:10.298Z,9.3048
2019-04-28T09:24:12.202Z,9.6024
2019-04-28T09:25:14.035Z,9.6147
2019-04-28T09:26:16.087Z,10.0190
2019-04-28T09:27:18.160Z,11.9539
2019-04-28T09:28:19.363Z,12.6102
2019-04-28T09:29:21.377Z,13.0793
2019-04-28T09:30:22.582Z,12.7140
2019-04-28T09:31:23.921Z,11.5691
2019-04-28T09:32:26.019Z,10.7287
2019-04-28T09:33:27.994Z,11.3610
2019-04-28T09:34:29.851Z,12.5398
2019-04-28T09:35:31.686Z,13.2102
2019-04-28T09:36:33.544Z,13.5597
2019-04-28T09:37:35.683Z,13.1378
2019-04-28T09:38:36.899Z,12.0650
2019-04-28T09:39:38.144Z,10.9760
2019-04-28T09:40:38.956Z,10.3362
2019-04-28T09:41:46.900Z,9.7346
2019-04-28T09:42:48.085Z,9.1985
2019-04-28T09:43:49.949Z,8.7417
2019-04-28T09:44:51.250Z,8.2753
2019-04-28T09:45:53.044Z,7.9468
2019-04-28T09:46:54.245Z,7.9540
2019-04-28T09:47:56.205Z,8.3751
2019-04-28T09:48:57.403Z,8.6479
2019-04-28T09:49:59.247Z,9.2998
2019-04-28T09:51:00.003Z,10.4167
2019-04-28T09:52:01.267Z,11.3122
2019-04-28T09:53:02.489Z,12.5034
2019-04-28T09:54:02.872Z,13.0133
2019-04-28T09:55:04.685Z,12.6701
2019-04-28T09:56:06.549Z,13.1619
2019-04-28T09:57:08.401Z,13.5989
2019-04-28T09:58:09.652Z,13.2520
2019-04-28T09:59:11.474Z,12.8037
2019-04-28T10:00:12.268Z,12.7352
2019-04-28T10:01:14.717Z,12.8451
2019-04-28T10:02:16.549Z,12.2629
2019-04-28T10:03:18.694Z,11.9036
2019-04-28T10:04:20.903Z,11.7659
2019-04-28T10:05:22.744Z,11.2740
2019-04-28T10:06:24.508Z,10.9048
2019-04-28T10:07:26.366Z,11.0533
2019-04-28T10:08:28.340Z,11.5427
2019-04-28T10:09:29.529Z,13.1089
2019-04-28T10:10:31.383Z,13.4738
2019-04-28T10:11:32.583Z,13.1932
2019-04-28T10:12:34.458Z,13.1971
2019-04-28T10:13:36.246Z,14.3217
2019-04-28T10:14:38.525Z,15.0736
2019-04-28T10:15:40.692Z,14.0909
2019-04-28T10:16:42.413Z,14.0139
2019-04-28T10:17:44.224Z,14.5280
2019-04-28T10:18:46.106Z,14.9470
2019-04-28T10:19:47.297Z,15.2166
2019-04-28T10:20:49.127Z,15.2714
2019-04-28T10:21:51.106Z,15.8010
2019-04-28T10:22:52.306Z,16.0362
2019-04-28T10:23:54.185Z,15.9168
2019-04-28T10:24:56.367Z,15.0708
2019-04-28T10:25:58.252Z,15.2678
2019-04-28T10:26:59.995Z,14.6109
2019-04-28T10:28:01.764Z,13.9975
2019-04-28T10:29:02.657Z,13.8778
2019-04-28T10:30:03.865Z,13.8108
2019-04-28T10:31:05.808Z,13.9819
2019-04-28T10:32:07.597Z,14.7837
2019-04-28T10:33:09.407Z,14.8073
2019-04-28T10:34:11.216Z,14.9495
2019-04-28T10:35:12.397Z,14.7505
2019-04-28T10:36:13.948Z,13.7522
2019-04-28T10:37:15.137Z,12.7443
2019-04-28T10:38:17.000Z,12.7882
2019-04-28T10:39:18.746Z,12.9809
2019-04-28T10:40:20.950Z,13.2361
2019-04-28T10:41:22.819Z,12.8824
2019-04-28T10:42:24.858Z,12.3377
2019-04-28T10:43:25.757Z,12.3584
2019-04-28T10:44:27.665Z,12.4665
2019-04-28T10:45:29.739Z,11.9680
2019-04-28T10:46:31.547Z,11.7276
2019-04-28T10:47:32.748Z,11.7226
2019-04-28T10:48:34.799Z,11.6184
2019-04-28T10:49:36.696Z,11.5242
2019-04-28T10:50:37.893Z,11.6025
2019-04-28T10:51:39.808Z,11.4601
2019-04-28T10:52:41.748Z,11.3766
2019-04-28T10:53:42.984Z,11.6011
2019-04-28T10:54:44.888Z,11.7512
2019-04-28T10:55:47.112Z,12.1186
2019-04-28T10:56:48.948Z,12.4873
2019-04-28T10:57:50.860Z,12.5987
2019-04-28T10:58:52.705Z,12.7336
2019-04-28T10:59:54.572Z,12.9897
2019-04-28T11:00:55.761Z,13.0523
2019-04-28T11:01:57.563Z,12.6966
2019-04-28T11:02:59.422Z,12.5368
2019-04-28T11:04:01.298Z,12.5157
2019-04-28T11:05:08.764Z,12.2334
2019-04-28T11:06:09.489Z,12.0410
2019-04-28T11:07:10.714Z,11.9817
2019-04-28T11:08:12.523Z,12.0412
2019-04-28T11:09:13.706Z,11.9066
2019-04-28T11:10:15.718Z,11.9511
2019-04-28T11:11:17.509Z,11.8030
2019-04-28T11:12:19.590Z,11.8711
2019-04-28T11:13:21.497Z,12.0663
2019-04-28T11:14:22.691Z,11.9975
2019-04-28T11:15:24.622Z,12.2022
2019-04-28T11:16:26.699Z,12.4055
2019-04-28T11:17:27.897Z,12.6276
2019-04-28T11:18:29.837Z,12.5501
2019-04-28T11:19:31.767Z,12.6754
2019-04-28T11:20:33.649Z,12.6717
2019-04-28T11:21:34.841Z,12.7043
2019-04-28T11:22:36.699Z,12.5935
2019-04-28T11:23:39.077Z,12.7114
2019-04-28T11:24:40.937Z,12.6113
2019-04-28T11:25:42.843Z,12.2273
2019-04-28T11:26:44.781Z,11.9899
2019-04-28T11:27:45.590Z,11.7655
2019-04-28T11:28:47.630Z,11.7144
2019-04-28T11:29:49.439Z,11.7316
2019-04-28T11:30:50.632Z,11.7721
2019-04-28T11:31:52.859Z,11.6401
2019-04-28T11:32:54.823Z,11.4026
2019-04-28T11:33:56.723Z,11.2520
2019-04-28T11:34:58.632Z,11.0837
2019-04-28T11:36:00.618Z,11.2476
2019-04-28T11:37:02.891Z,11.4547
2019-04-28T11:38:04.688Z,11.6505
2019-04-28T11:39:05.949Z,11.8324
2019-04-28T11:40:07.895Z,11.8622
2019-04-28T11:41:11.584Z,11.9939
2019-04-28T11:42:12.929Z,11.9282
2019-04-28T11:43:14.783Z,12.0181
2019-04-28T11:44:15.979Z,11.9014
2019-04-28T11:45:17.926Z,11.5798
2019-04-28T11:46:19.887Z,11.5032
2019-04-28T11:47:21.374Z,11.2971
2019-04-28T11:48:23.441Z,11.3517
2019-04-28T11:49:25.314Z,11.2035
2019-04-28T11:50:27.128Z,11.3280
2019-04-28T11:51:29.094Z,11.8378
2019-04-28T11:52:31.264Z,12.3904
2019-04-28T11:53:33.112Z,13.0897
2019-04-28T11:54:35.091Z,13.9275
2019-04-28T11:55:35.980Z,15.5610
2019-04-28T11:56:41.438Z,16.2261
2019-04-28T11:57:43.914Z,16.6638
2019-04-28T11:58:45.791Z,16.8580
2019-04-28T11:59:47.614Z,17.4076
2019-04-28T12:00:48.811Z,17.6635
2019-04-28T12:01:50.585Z,17.3125
2019-04-28T12:02:52.669Z,17.1796
2019-04-28T12:03:54.569Z,16.8324
2019-04-28T12:04:56.566Z,16.8307
2019-04-28T12:05:58.444Z,17.2037
2019-04-28T12:07:00.234Z,17.3833
2019-04-28T12:08:02.017Z,17.2633
2019-04-28T12:09:03.457Z,16.0711
2019-04-28T12:10:06.376Z,15.0858
2019-04-28T12:11:07.836Z,13.6820
2019-04-28T12:12:09.674Z,12.9691
2019-04-28T12:13:10.884Z,13.1472
2019-04-28T12:14:12.850Z,13.3433
2019-04-28T12:15:14.707Z,13.9940
2019-04-28T12:16:16.493Z,15.2694
2019-04-28T12:17:18.253Z,15.5957
2019-04-28T12:18:19.449Z,15.6764
2019-04-28T12:19:20.959Z,15.6990
2019-04-28T12:20:22.796Z,15.7495
2019-04-28T12:21:23.983Z,14.7112
2019-04-28T12:22:25.889Z,15.3408
2019-04-28T12:23:28.050Z,15.0488
2019-04-28T12:24:29.236Z,15.1656
2019-04-28T12:25:31.145Z,14.9287
2019-04-28T12:26:33.032Z,14.2943
2019-04-28T12:27:34.270Z,13.3885
2019-04-28T12:28:36.439Z,12.7387
2019-04-28T12:29:38.328Z,12.4280
2019-04-28T12:30:40.246Z,12.2095
2019-04-28T12:31:42.088Z,13.1237
2019-04-28T12:32:43.991Z,13.7421
2019-04-28T12:33:46.070Z,13.9164
2019-04-28T12:34:47.842Z,13.5945
2019-04-28T12:35:49.035Z,13.1556
2019-04-28T12:36:50.791Z,12.3549
2019-04-28T12:37:52.049Z,11.4720
2019-04-28T12:38:54.136Z,10.8760
2019-04-28T12:39:55.982Z,10.6784
2019-04-28T12:40:57.199Z,10.3121
2019-04-28T12:41:59.050Z,10.2852
2019-04-28T12:43:00.885Z,10.1827
2019-04-28T12:44:03.152Z,10.1783
2019-04-28T12:45:05.361Z,10.2890
2019-04-28T12:46:07.181Z,10.1347